sensor_id;sensor_type;location;lat;lon;timestamp;temperature;humidity
8180;DHT22;4131;48.810;11.892;2023-04-16T00:00:49;6.40;99.90
8180;DHT22;4131;48.810;11.892;2023-04-16T00:03:17;6.80;99.90
8180;DHT22;4131;48.810;11.892;2023-04-16T00:05:45;6.30;99.90
8180;DHT22;4131;48.810;11.892;2023-04-16T00:08:13;7.10;99.90
8180;DHT22;4131;48.810;11.892;2023-04-16T00:10:41;7.50;99.90
8180;DHT22;4131;48.810;11.892;2023-04-16T00:13:11;6.30;99.90
8180;DHT22;4131;48.810;11.892;2023-04-16T00:15:39;6.20;99.90
8180;DHT22;4131;48.810;11.892;2023-04-16T00:18:07;6.20;99.90
8180;DHT22;4131;48.810;11.892;2023-04-16T00:20:35;6.20;99.90
8180;DHT22;4131;48.810;11.892;2023-04-16T00:23:03;6.20;99.90
8180;DHT22;4131;48.810;11.892;2023-04-16T00:25:31;6.20;99.90
8180;DHT22;4131;48.810;11.892;2023-04-16T00:28:00;6.20;99.90
8180;DHT22;4131;48.810;11.892;2023-04-16T00:30:29;6.20;99.90
8180;DHT22;4131;48.810;11.892;2023-04-16T00:32:57;6.20;99.90
8180;DHT22;4131;48.810;11.892;2023-04-16T00:35:25;6.20;99.90
8180;DHT22;4131;48.810;11.892;2023-04-16T00:37:53;6.50;99.90
8180;DHT22;4131;48.810;11.892;2023-04-16T00:40:22;6.20;99.90
8180;DHT22;4131;48.810;11.892;2023-04-16T00:42:50;6.20;99.90
8180;DHT22;4131;48.810;11.892;2023-04-16T00:45:18;6.20;99.90
8180;DHT22;4131;48.810;11.892;2023-04-16T00:47:48;6.20;99.90
8180;DHT22;4131;48.810;11.892;2023-04-16T00:50:18;6.20;99.90
8180;DHT22;4131;48.810;11.892;2023-04-16T00:52:46;6.20;99.90
8180;DHT22;4131;48.810;11.892;2023-04-16T00:55:15;6.20;99.90
8180;DHT22;4131;48.810;11.892;2023-04-16T00:57:44;6.20;99.90
8180;DHT22;4131;48.810;11.892;2023-04-16T01:00:13;6.20;99.90
8180;DHT22;4131;48.810;11.892;2023-04-16T01:02:41;6.20;99.90
8180;DHT22;4131;48.810;11.892;2023-04-16T01:05:11;6.30;99.90
8180;DHT22;4131;48.810;11.892;2023-04-16T01:07:39;7.70;99.90
8180;DHT22;4131;48.810;11.892;2023-04-16T01:10:07;6.30;99.90
8180;DHT22;4131;48.810;11.892;2023-04-16T01:12:35;6.30;99.90
8180;DHT22;4131;48.810;11.892;2023-04-16T01:15:04;7.50;99.90
8180;DHT22;4131;48.810;11.892;2023-04-16T01:17:33;6.30;99.90
8180;DHT22;4131;48.810;11.892;2023-04-16T01:20:01;6.80;99.90
8180;DHT22;4131;48.810;11.892;2023-04-16T01:22:30;6.30;99.90
8180;DHT22;4131;48.810;11.892;2023-04-16T01:24:58;6.30;99.90
8180;DHT22;4131;48.810;11.892;2023-04-16T01:27:26;6.30;99.90
8180;DHT22;4131;48.810;11.892;2023-04-16T01:29:54;7.70;99.90
8180;DHT22;4131;48.810;11.892;2023-04-16T01:32:23;6.30;99.90
8180;DHT22;4131;48.810;11.892;2023-04-16T01:34:51;6.30;99.90
8180;DHT22;4131;48.810;11.892;2023-04-16T01:37:19;6.20;99.90
8180;DHT22;4131;48.810;11.892;2023-04-16T01:39:48;6.20;99.90
8180;DHT22;4131;48.810;11.892;2023-04-16T01:42:16;6.20;99.90
8180;DHT22;4131;48.810;11.892;2023-04-16T01:44:46;6.20;99.90
8180;DHT22;4131;48.810;11.892;2023-04-16T01:47:14;6.20;99.90
8180;DHT22;4131;48.810;11.892;2023-04-16T01:49:42;6.20;99.90
8180;DHT22;4131;48.810;11.892;2023-04-16T01:52:11;7.60;99.90
8180;DHT22;4131;48.810;11.892;2023-04-16T01:54:39;6.20;99.90
8180;DHT22;4131;48.810;11.892;2023-04-16T01:57:08;6.20;99.90
8180;DHT22;4131;48.810;11.892;2023-04-16T01:59:37;6.20;99.90
8180;DHT22;4131;48.810;11.892;2023-04-16T02:02:08;6.20;99.90
8180;DHT22;4131;48.810;11.892;2023-04-16T02:04:37;6.20;99.90
8180;DHT22;4131;48.810;11.892;2023-04-16T02:07:06;6.20;99.90
8180;DHT22;4131;48.810;11.892;2023-04-16T02:09:35;6.20;99.90
8180;DHT22;4131;48.810;11.892;2023-04-16T02:12:03;6.20;99.90
8180;DHT22;4131;48.810;11.892;2023-04-16T02:14:33;6.20;99.90
8180;DHT22;4131;48.810;11.892;2023-04-16T02:17:01;6.10;99.90
8180;DHT22;4131;48.810;11.892;2023-04-16T02:19:29;6.20;99.90
8180;DHT22;4131;48.810;11.892;2023-04-16T02:21:57;6.10;99.90
8180;DHT22;4131;48.810;11.892;2023-04-16T02:24:27;6.10;99.90
8180;DHT22;4131;48.810;11.892;2023-04-16T02:26:55;6.10;99.90
8180;DHT22;4131;48.810;11.892;2023-04-16T02:29:23;6.00;99.90
8180;DHT22;4131;48.810;11.892;2023-04-16T02:31:53;6.10;99.90
8180;DHT22;4131;48.810;11.892;2023-04-16T02:34:21;6.10;99.90
8180;DHT22;4131;48.810;11.892;2023-04-16T02:36:49;6.00;99.90
8180;DHT22;4131;48.810;11.892;2023-04-16T02:39:17;6.50;99.90
8180;DHT22;4131;48.810;11.892;2023-04-16T02:41:45;6.00;99.90
8180;DHT22;4131;48.810;11.892;2023-04-16T02:44:13;6.10;99.90
8180;DHT22;4131;48.810;11.892;2023-04-16T02:46:41;6.10;99.90
8180;DHT22;4131;48.810;11.892;2023-04-16T02:49:11;6.10;99.90
8180;DHT22;4131;48.810;11.892;2023-04-16T02:51:39;6.10;99.90
8180;DHT22;4131;48.810;11.892;2023-04-16T02:54:07;6.10;99.90
8180;DHT22;4131;48.810;11.892;2023-04-16T02:56:35;6.10;99.90
8180;DHT22;4131;48.810;11.892;2023-04-16T02:59:03;6.10;99.90
8180;DHT22;4131;48.810;11.892;2023-04-16T03:01:31;6.00;99.90
8180;DHT22;4131;48.810;11.892;2023-04-16T03:03:59;6.10;99.90
8180;DHT22;4131;48.810;11.892;2023-04-16T03:06:28;6.10;99.90
8180;DHT22;4131;48.810;11.892;2023-04-16T03:08:57;6.10;99.90
8180;DHT22;4131;48.810;11.892;2023-04-16T03:11:25;6.10;99.90
8180;DHT22;4131;48.810;11.892;2023-04-16T03:13:53;6.10;99.90
8180;DHT22;4131;48.810;11.892;2023-04-16T03:16:21;6.10;99.90
8180;DHT22;4131;48.810;11.892;2023-04-16T03:18:49;6.00;99.90
8180;DHT22;4131;48.810;11.892;2023-04-16T03:21:17;6.10;99.90
8180;DHT22;4131;48.810;11.892;2023-04-16T03:23:46;6.00;99.90
8180;DHT22;4131;48.810;11.892;2023-04-16T03:26:14;6.40;99.90
8180;DHT22;4131;48.810;11.892;2023-04-16T03:28:42;5.90;99.90
8180;DHT22;4131;48.810;11.892;2023-04-16T03:31:10;6.00;99.90
8180;DHT22;4131;48.810;11.892;2023-04-16T03:33:38;5.90;99.90
8180;DHT22;4131;48.810;11.892;2023-04-16T03:36:07;6.30;99.90
8180;DHT22;4131;48.810;11.892;2023-04-16T03:38:35;5.90;99.90
8180;DHT22;4131;48.810;11.892;2023-04-16T03:41:05;6.10;99.90
8180;DHT22;4131;48.810;11.892;2023-04-16T03:43:32;5.90;99.90
8180;DHT22;4131;48.810;11.892;2023-04-16T03:46:00;6.00;99.90
8180;DHT22;4131;48.810;11.892;2023-04-16T03:48:29;6.40;99.90
8180;DHT22;4131;48.810;11.892;2023-04-16T03:50:57;6.40;99.90
8180;DHT22;4131;48.810;11.892;2023-04-16T03:53:25;7.20;99.90
8180;DHT22;4131;48.810;11.892;2023-04-16T03:55:53;6.70;99.90
8180;DHT22;4131;48.810;11.892;2023-04-16T03:58:22;7.60;99.90
8180;DHT22;4131;48.810;11.892;2023-04-16T04:00:52;6.10;99.90
8180;DHT22;4131;48.810;11.892;2023-04-16T04:03:20;5.90;99.90
8180;DHT22;4131;48.810;11.892;2023-04-16T04:05:48;5.90;99.90
8180;DHT22;4131;48.810;11.892;2023-04-16T04:08:16;6.80;99.90
8180;DHT22;4131;48.810;11.892;2023-04-16T04:10:44;7.00;99.90
8180;DHT22;4131;48.810;11.892;2023-04-16T04:13:34;6.10;99.90
8180;DHT22;4131;48.810;11.892;2023-04-16T04:16:22;6.20;99.90
8180;DHT22;4131;48.810;11.892;2023-04-16T04:19:10;5.90;99.90
8180;DHT22;4131;48.810;11.892;2023-04-16T04:21:56;5.80;99.90
8180;DHT22;4131;48.810;11.892;2023-04-16T04:24:44;5.90;99.90
8180;DHT22;4131;48.810;11.892;2023-04-16T04:27:19;5.90;99.90
8180;DHT22;4131;48.810;11.892;2023-04-16T04:30:09;5.90;99.90
8180;DHT22;4131;48.810;11.892;2023-04-16T04:32:58;5.80;99.90
8180;DHT22;4131;48.810;11.892;2023-04-16T04:35:46;6.40;99.90
8180;DHT22;4131;48.810;11.892;2023-04-16T04:38:34;6.40;99.90
8180;DHT22;4131;48.810;11.892;2023-04-16T04:41:06;7.80;99.90
8180;DHT22;4131;48.810;11.892;2023-04-16T04:43:42;7.10;99.90
8180;DHT22;4131;48.810;11.892;2023-04-16T04:46:13;6.00;99.90
8180;DHT22;4131;48.810;11.892;2023-04-16T04:48:45;5.90;99.90
8180;DHT22;4131;48.810;11.892;2023-04-16T04:51:13;5.90;99.90
8180;DHT22;4131;48.810;11.892;2023-04-16T04:53:41;6.40;99.90
8180;DHT22;4131;48.810;11.892;2023-04-16T04:56:09;6.00;99.90
8180;DHT22;4131;48.810;11.892;2023-04-16T04:58:39;6.00;99.90
8180;DHT22;4131;48.810;11.892;2023-04-16T05:01:07;6.50;99.90
8180;DHT22;4131;48.810;11.892;2023-04-16T05:03:36;6.00;99.90
8180;DHT22;4131;48.810;11.892;2023-04-16T05:06:06;6.00;99.90
8180;DHT22;4131;48.810;11.892;2023-04-16T05:08:34;5.90;99.90
8180;DHT22;4131;48.810;11.892;2023-04-16T05:11:02;5.90;99.90
8180;DHT22;4131;48.810;11.892;2023-04-16T05:13:30;6.00;99.90
8180;DHT22;4131;48.810;11.892;2023-04-16T05:15:58;5.90;99.90
8180;DHT22;4131;48.810;11.892;2023-04-16T05:18:26;6.70;99.90
8180;DHT22;4131;48.810;11.892;2023-04-16T05:20:56;6.00;99.90
8180;DHT22;4131;48.810;11.892;2023-04-16T05:23:24;6.00;99.90
8180;DHT22;4131;48.810;11.892;2023-04-16T05:25:52;6.00;99.90
8180;DHT22;4131;48.810;11.892;2023-04-16T05:28:20;6.00;99.90
8180;DHT22;4131;48.810;11.892;2023-04-16T05:30:48;6.50;99.90
8180;DHT22;4131;48.810;11.892;2023-04-16T05:33:16;6.10;99.90
8180;DHT22;4131;48.810;11.892;2023-04-16T05:35:44;6.10;99.90
8180;DHT22;4131;48.810;11.892;2023-04-16T05:38:13;6.10;99.90
8180;DHT22;4131;48.810;11.892;2023-04-16T05:40:41;6.10;99.90
8180;DHT22;4131;48.810;11.892;2023-04-16T05:43:09;6.10;99.90
8180;DHT22;4131;48.810;11.892;2023-04-16T05:45:37;6.10;99.90
8180;DHT22;4131;48.810;11.892;2023-04-16T05:48:07;6.20;99.90
8180;DHT22;4131;48.810;11.892;2023-04-16T05:50:36;6.10;99.90
8180;DHT22;4131;48.810;11.892;2023-04-16T05:53:05;6.10;99.90
8180;DHT22;4131;48.810;11.892;2023-04-16T05:55:34;6.20;99.90
8180;DHT22;4131;48.810;11.892;2023-04-16T05:58:02;6.70;99.90
8180;DHT22;4131;48.810;11.892;2023-04-16T06:00:31;6.20;99.90
8180;DHT22;4131;48.810;11.892;2023-04-16T06:02:59;6.20;99.90
8180;DHT22;4131;48.810;11.892;2023-04-16T06:05:27;6.20;99.90
8180;DHT22;4131;48.810;11.892;2023-04-16T06:07:56;6.30;99.90
8180;DHT22;4131;48.810;11.892;2023-04-16T06:10:24;6.30;99.90
8180;DHT22;4131;48.810;11.892;2023-04-16T06:12:53;6.30;99.90
8180;DHT22;4131;48.810;11.892;2023-04-16T06:15:21;7.40;99.90
8180;DHT22;4131;48.810;11.892;2023-04-16T06:17:49;7.30;99.90
8180;DHT22;4131;48.810;11.892;2023-04-16T06:20:17;6.40;99.90
8180;DHT22;4131;48.810;11.892;2023-04-16T06:22:45;6.40;99.90
8180;DHT22;4131;48.810;11.892;2023-04-16T06:25:13;6.50;99.90
8180;DHT22;4131;48.810;11.892;2023-04-16T06:27:43;6.60;99.90
8180;DHT22;4131;48.810;11.892;2023-04-16T06:30:14;6.80;99.90
8180;DHT22;4131;48.810;11.892;2023-04-16T06:32:42;6.60;99.90
8180;DHT22;4131;48.810;11.892;2023-04-16T06:35:12;6.60;99.90
8180;DHT22;4131;48.810;11.892;2023-04-16T06:37:40;6.60;99.90
8180;DHT22;4131;48.810;11.892;2023-04-16T06:40:09;8.00;99.90
8180;DHT22;4131;48.810;11.892;2023-04-16T06:42:37;6.70;99.90
8180;DHT22;4131;48.810;11.892;2023-04-16T06:45:06;6.80;99.90
8180;DHT22;4131;48.810;11.892;2023-04-16T06:47:36;6.90;99.90
8180;DHT22;4131;48.810;11.892;2023-04-16T06:50:05;7.00;99.90
8180;DHT22;4131;48.810;11.892;2023-04-16T06:52:33;7.00;99.90
8180;DHT22;4131;48.810;11.892;2023-04-16T06:55:01;7.20;99.90
8180;DHT22;4131;48.810;11.892;2023-04-16T06:57:29;7.10;99.90
8180;DHT22;4131;48.810;11.892;2023-04-16T06:59:57;7.40;99.90
8180;DHT22;4131;48.810;11.892;2023-04-16T07:02:25;7.10;99.90
8180;DHT22;4131;48.810;11.892;2023-04-16T07:04:55;9.00;99.90
8180;DHT22;4131;48.810;11.892;2023-04-16T07:07:23;7.10;99.90
8180;DHT22;4131;48.810;11.892;2023-04-16T07:09:51;7.10;99.90
8180;DHT22;4131;48.810;11.892;2023-04-16T07:12:19;8.10;99.90
8180;DHT22;4131;48.810;11.892;2023-04-16T07:14:48;9.00;99.90
8180;DHT22;4131;48.810;11.892;2023-04-16T07:17:16;7.10;99.90
8180;DHT22;4131;48.810;11.892;2023-04-16T07:19:45;7.10;99.90
8180;DHT22;4131;48.810;11.892;2023-04-16T07:22:14;7.20;99.90
8180;DHT22;4131;48.810;11.892;2023-04-16T07:24:42;7.30;99.90
8180;DHT22;4131;48.810;11.892;2023-04-16T07:27:11;8.50;99.90
8180;DHT22;4131;48.810;11.892;2023-04-16T07:36:07;7.30;99.90
8180;DHT22;4131;48.810;11.892;2023-04-16T07:38:38;7.30;99.90
8180;DHT22;4131;48.810;11.892;2023-04-16T07:41:07;7.40;99.90
8180;DHT22;4131;48.810;11.892;2023-04-16T07:43:35;7.40;99.90
8180;DHT22;4131;48.810;11.892;2023-04-16T07:46:03;7.40;99.90
8180;DHT22;4131;48.810;11.892;2023-04-16T07:48:31;7.60;99.90
8180;DHT22;4131;48.810;11.892;2023-04-16T07:50:59;7.70;99.90
8180;DHT22;4131;48.810;11.892;2023-04-16T07:53:27;7.80;99.90
8180;DHT22;4131;48.810;11.892;2023-04-16T07:55:57;8.70;99.90
8180;DHT22;4131;48.810;11.892;2023-04-16T07:58:25;8.90;99.90
8180;DHT22;4131;48.810;11.892;2023-04-16T08:00:53;8.10;99.90
8180;DHT22;4131;48.810;11.892;2023-04-16T08:03:21;9.20;99.90
8180;DHT22;4131;48.810;11.892;2023-04-16T08:05:50;8.30;99.90
8180;DHT22;4131;48.810;11.892;2023-04-16T08:08:18;8.40;99.90
8180;DHT22;4131;48.810;11.892;2023-04-16T08:10:46;9.00;99.90
8180;DHT22;4131;48.810;11.892;2023-04-16T08:13:15;9.20;99.90
8180;DHT22;4131;48.810;11.892;2023-04-16T08:15:43;8.80;99.90
8180;DHT22;4131;48.810;11.892;2023-04-16T08:18:11;8.90;99.90
8180;DHT22;4131;48.810;11.892;2023-04-16T08:20:41;9.30;99.90
8180;DHT22;4131;48.810;11.892;2023-04-16T08:23:09;8.90;99.90
8180;DHT22;4131;48.810;11.892;2023-04-16T08:25:37;9.30;99.90
8180;DHT22;4131;48.810;11.892;2023-04-16T08:28:05;8.70;99.90
8180;DHT22;4131;48.810;11.892;2023-04-16T08:30:35;8.70;99.90
8180;DHT22;4131;48.810;11.892;2023-04-16T08:33:03;9.30;99.90
8180;DHT22;4131;48.810;11.892;2023-04-16T08:35:31;8.80;99.90
8180;DHT22;4131;48.810;11.892;2023-04-16T08:37:59;9.40;99.90
8180;DHT22;4131;48.810;11.892;2023-04-16T08:40:28;9.70;99.90
8180;DHT22;4131;48.810;11.892;2023-04-16T08:42:58;9.10;99.90
8180;DHT22;4131;48.810;11.892;2023-04-16T08:45:26;9.30;99.90
8180;DHT22;4131;48.810;11.892;2023-04-16T08:47:56;9.20;99.90
8180;DHT22;4131;48.810;11.892;2023-04-16T08:50:25;9.10;99.90
8180;DHT22;4131;48.810;11.892;2023-04-16T08:52:57;9.00;99.90
8180;DHT22;4131;48.810;11.892;2023-04-16T08:55:31;9.00;99.90
8180;DHT22;4131;48.810;11.892;2023-04-16T08:58:06;10.90;99.90
8180;DHT22;4131;48.810;11.892;2023-04-16T09:00:36;10.60;99.90
8180;DHT22;4131;48.810;11.892;2023-04-16T09:03:06;9.20;99.90
8180;DHT22;4131;48.810;11.892;2023-04-16T09:05:35;10.20;99.90
8180;DHT22;4131;48.810;11.892;2023-04-16T09:08:04;9.20;99.90
8180;DHT22;4131;48.810;11.892;2023-04-16T09:10:33;9.10;99.90
8180;DHT22;4131;48.810;11.892;2023-04-16T09:13:01;9.10;99.90
8180;DHT22;4131;48.810;11.892;2023-04-16T09:15:29;9.00;99.90
8180;DHT22;4131;48.810;11.892;2023-04-16T09:18:00;9.00;99.90
8180;DHT22;4131;48.810;11.892;2023-04-16T09:20:30;9.10;99.90
8180;DHT22;4131;48.810;11.892;2023-04-16T09:22:58;9.40;99.90
8180;DHT22;4131;48.810;11.892;2023-04-16T09:25:26;10.20;99.90
8180;DHT22;4131;48.810;11.892;2023-04-16T09:27:54;9.00;99.90
8180;DHT22;4131;48.810;11.892;2023-04-16T09:30:23;9.10;99.90
8180;DHT22;4131;48.810;11.892;2023-04-16T09:33:11;9.20;99.90
8180;DHT22;4131;48.810;11.892;2023-04-16T09:35:47;10.30;99.90
8180;DHT22;4131;48.810;11.892;2023-04-16T09:38:15;9.30;99.90
8180;DHT22;4131;48.810;11.892;2023-04-16T09:40:44;9.50;99.90
8180;DHT22;4131;48.810;11.892;2023-04-16T09:43:15;10.10;99.90
8180;DHT22;4131;48.810;11.892;2023-04-16T09:45:48;9.50;99.90
8180;DHT22;4131;48.810;11.892;2023-04-16T09:48:27;9.50;99.90
8180;DHT22;4131;48.810;11.892;2023-04-16T09:50:57;9.80;99.90
8180;DHT22;4131;48.810;11.892;2023-04-16T09:53:27;10.60;99.90
8180;DHT22;4131;48.810;11.892;2023-04-16T09:55:55;9.80;99.90
8180;DHT22;4131;48.810;11.892;2023-04-16T09:58:24;9.90;99.90
8180;DHT22;4131;48.810;11.892;2023-04-16T10:00:54;11.70;99.90
8180;DHT22;4131;48.810;11.892;2023-04-16T10:03:30;10.10;99.90
8180;DHT22;4131;48.810;11.892;2023-04-16T10:06:02;10.20;99.90
8180;DHT22;4131;48.810;11.892;2023-04-16T10:08:33;10.40;99.90
8180;DHT22;4131;48.810;11.892;2023-04-16T10:11:01;10.40;99.90
8180;DHT22;4131;48.810;11.892;2023-04-16T10:13:30;11.70;99.90
8180;DHT22;4131;48.810;11.892;2023-04-16T10:15:58;11.00;99.90
8180;DHT22;4131;48.810;11.892;2023-04-16T10:18:27;11.60;99.90
8180;DHT22;4131;48.810;11.892;2023-04-16T10:20:56;11.80;99.90
8180;DHT22;4131;48.810;11.892;2023-04-16T10:23:26;12.10;99.90
8180;DHT22;4131;48.810;11.892;2023-04-16T10:25:55;12.50;99.90
8180;DHT22;4131;48.810;11.892;2023-04-16T10:28:25;12.60;99.90
8180;DHT22;4131;48.810;11.892;2023-04-16T10:30:56;13.50;99.90
8180;DHT22;4131;48.810;11.892;2023-04-16T10:33:26;14.80;99.90
8180;DHT22;4131;48.810;11.892;2023-04-16T10:36:07;14.40;99.90
8180;DHT22;4131;48.810;11.892;2023-04-16T10:38:39;14.00;99.90
8180;DHT22;4131;48.810;11.892;2023-04-16T10:41:07;13.90;99.90
8180;DHT22;4131;48.810;11.892;2023-04-16T10:43:42;14.60;99.90
8180;DHT22;4131;48.810;11.892;2023-04-16T10:46:17;14.90;99.90
8180;DHT22;4131;48.810;11.892;2023-04-16T10:48:45;14.10;99.90
8180;DHT22;4131;48.810;11.892;2023-04-16T10:51:24;13.70;99.90
8180;DHT22;4131;48.810;11.892;2023-04-16T10:53:55;13.40;99.90
8180;DHT22;4131;48.810;11.892;2023-04-16T10:56:24;12.80;99.90
8180;DHT22;4131;48.810;11.892;2023-04-16T10:58:53;12.70;99.90
8180;DHT22;4131;48.810;11.892;2023-04-16T11:01:29;13.40;99.90
8180;DHT22;4131;48.810;11.892;2023-04-16T11:03:59;14.70;99.90
8180;DHT22;4131;48.810;11.892;2023-04-16T11:06:30;13.00;99.90
8180;DHT22;4131;48.810;11.892;2023-04-16T11:09:02;12.50;99.90
8180;DHT22;4131;48.810;11.892;2023-04-16T11:11:37;12.80;99.90
8180;DHT22;4131;48.810;11.892;2023-04-16T11:14:05;12.80;99.90
8180;DHT22;4131;48.810;11.892;2023-04-16T11:16:39;13.10;99.90
8180;DHT22;4131;48.810;11.892;2023-04-16T11:19:15;13.00;99.90
8180;DHT22;4131;48.810;11.892;2023-04-16T11:21:44;12.50;99.90
8180;DHT22;4131;48.810;11.892;2023-04-16T11:24:14;12.30;99.90
8180;DHT22;4131;48.810;11.892;2023-04-16T11:26:42;12.30;99.90
8180;DHT22;4131;48.810;11.892;2023-04-16T11:29:13;12.00;99.90
8180;DHT22;4131;48.810;11.892;2023-04-16T11:31:41;12.00;99.90
8180;DHT22;4131;48.810;11.892;2023-04-16T11:34:09;12.00;99.90
8180;DHT22;4131;48.810;11.892;2023-04-16T11:36:44;11.80;99.90
8180;DHT22;4131;48.810;11.892;2023-04-16T11:39:14;11.90;99.90
8180;DHT22;4131;48.810;11.892;2023-04-16T11:41:42;11.60;99.90
8180;DHT22;4131;48.810;11.892;2023-04-16T11:44:20;11.70;99.90
8180;DHT22;4131;48.810;11.892;2023-04-16T11:46:49;12.00;99.90
8180;DHT22;4131;48.810;11.892;2023-04-16T11:49:26;12.00;99.90
8180;DHT22;4131;48.810;11.892;2023-04-16T11:51:54;12.00;99.90
8180;DHT22;4131;48.810;11.892;2023-04-16T11:54:24;12.10;99.90
8180;DHT22;4131;48.810;11.892;2023-04-16T11:56:52;12.30;99.90
8180;DHT22;4131;48.810;11.892;2023-04-16T11:59:22;12.20;99.90
8180;DHT22;4131;48.810;11.892;2023-04-16T12:01:52;11.90;99.90
8180;DHT22;4131;48.810;11.892;2023-04-16T12:04:23;12.10;99.90
8180;DHT22;4131;48.810;11.892;2023-04-16T12:07:08;12.20;99.90
8180;DHT22;4131;48.810;11.892;2023-04-16T12:09:39;12.00;99.90
8180;DHT22;4131;48.810;11.892;2023-04-16T12:12:25;12.00;99.90
8180;DHT22;4131;48.810;11.892;2023-04-16T12:14:54;12.30;99.90
8180;DHT22;4131;48.810;11.892;2023-04-16T12:17:22;12.00;99.90
8180;DHT22;4131;48.810;11.892;2023-04-16T12:19:54;12.20;99.90
8180;DHT22;4131;48.810;11.892;2023-04-16T12:22:29;12.30;99.90
8180;DHT22;4131;48.810;11.892;2023-04-16T12:25:02;12.60;99.90
8180;DHT22;4131;48.810;11.892;2023-04-16T12:27:43;12.80;99.90
8180;DHT22;4131;48.810;11.892;2023-04-16T12:30:13;13.00;99.90
8180;DHT22;4131;48.810;11.892;2023-04-16T12:32:42;12.40;99.90
8180;DHT22;4131;48.810;11.892;2023-04-16T12:35:11;13.40;99.90
8180;DHT22;4131;48.810;11.892;2023-04-16T12:37:40;13.60;99.90
8180;DHT22;4131;48.810;11.892;2023-04-16T12:40:10;13.40;99.90
8180;DHT22;4131;48.810;11.892;2023-04-16T12:42:38;13.10;99.90
8180;DHT22;4131;48.810;11.892;2023-04-16T12:45:06;13.30;99.90
8180;DHT22;4131;48.810;11.892;2023-04-16T12:47:35;13.30;99.90
8180;DHT22;4131;48.810;11.892;2023-04-16T12:50:03;13.60;99.90
8180;DHT22;4131;48.810;11.892;2023-04-16T12:52:31;13.70;99.90
8180;DHT22;4131;48.810;11.892;2023-04-16T12:55:01;13.70;99.90
8180;DHT22;4131;48.810;11.892;2023-04-16T12:57:30;13.70;99.90
8180;DHT22;4131;48.810;11.892;2023-04-16T12:59:58;13.50;99.90
8180;DHT22;4131;48.810;11.892;2023-04-16T13:02:26;13.10;99.90
8180;DHT22;4131;48.810;11.892;2023-04-16T13:04:55;12.80;99.90
8180;DHT22;4131;48.810;11.892;2023-04-16T13:07:24;12.60;99.90
8180;DHT22;4131;48.810;11.892;2023-04-16T13:09:52;12.50;99.90
8180;DHT22;4131;48.810;11.892;2023-04-16T13:12:20;12.30;99.90
8180;DHT22;4131;48.810;11.892;2023-04-16T13:14:50;12.10;99.90
8180;DHT22;4131;48.810;11.892;2023-04-16T13:17:18;12.00;99.90
8180;DHT22;4131;48.810;11.892;2023-04-16T13:19:46;12.00;99.90
8180;DHT22;4131;48.810;11.892;2023-04-16T13:22:14;12.10;99.90
8180;DHT22;4131;48.810;11.892;2023-04-16T13:24:42;12.00;99.90
8180;DHT22;4131;48.810;11.892;2023-04-16T13:27:10;11.60;99.90
8180;DHT22;4131;48.810;11.892;2023-04-16T13:29:39;11.40;99.90
8180;DHT22;4131;48.810;11.892;2023-04-16T13:32:09;11.50;99.90
8180;DHT22;4131;48.810;11.892;2023-04-16T13:34:39;11.60;99.90
8180;DHT22;4131;48.810;11.892;2023-04-16T13:37:07;11.70;99.90
8180;DHT22;4131;48.810;11.892;2023-04-16T13:39:35;11.80;99.90
8180;DHT22;4131;48.810;11.892;2023-04-16T13:42:03;11.90;99.90
8180;DHT22;4131;48.810;11.892;2023-04-16T13:44:31;12.00;99.90
8180;DHT22;4131;48.810;11.892;2023-04-16T13:47:00;12.00;99.90
8180;DHT22;4131;48.810;11.892;2023-04-16T13:49:29;12.20;99.90
8180;DHT22;4131;48.810;11.892;2023-04-16T13:52:01;12.00;99.90
8180;DHT22;4131;48.810;11.892;2023-04-16T13:54:29;12.20;99.90
8180;DHT22;4131;48.810;11.892;2023-04-16T13:56:57;12.40;99.90
8180;DHT22;4131;48.810;11.892;2023-04-16T13:59:25;12.40;99.90
8180;DHT22;4131;48.810;11.892;2023-04-16T14:01:54;12.30;99.90
8180;DHT22;4131;48.810;11.892;2023-04-16T14:04:22;12.50;99.90
8180;DHT22;4131;48.810;11.892;2023-04-16T14:06:51;12.50;99.90
8180;DHT22;4131;48.810;11.892;2023-04-16T14:09:20;12.50;99.90
8180;DHT22;4131;48.810;11.892;2023-04-16T14:11:48;12.40;99.90
8180;DHT22;4131;48.810;11.892;2023-04-16T14:14:16;12.40;99.90
8180;DHT22;4131;48.810;11.892;2023-04-16T14:16:44;12.50;99.90
8180;DHT22;4131;48.810;11.892;2023-04-16T14:19:13;12.60;99.90
8180;DHT22;4131;48.810;11.892;2023-04-16T14:21:41;12.40;99.90
8180;DHT22;4131;48.810;11.892;2023-04-16T14:24:11;12.10;99.90
8180;DHT22;4131;48.810;11.892;2023-04-16T14:26:39;12.10;99.90
8180;DHT22;4131;48.810;11.892;2023-04-16T14:29:07;12.30;99.90
8180;DHT22;4131;48.810;11.892;2023-04-16T14:31:35;12.30;99.90
8180;DHT22;4131;48.810;11.892;2023-04-16T14:34:04;12.30;99.90
8180;DHT22;4131;48.810;11.892;2023-04-16T14:36:32;12.40;99.90
8180;DHT22;4131;48.810;11.892;2023-04-16T14:39:00;12.40;99.90
8180;DHT22;4131;48.810;11.892;2023-04-16T14:41:30;12.20;99.90
8180;DHT22;4131;48.810;11.892;2023-04-16T14:43:58;11.90;99.90
8180;DHT22;4131;48.810;11.892;2023-04-16T14:46:27;11.90;99.90
8180;DHT22;4131;48.810;11.892;2023-04-16T14:48:56;12.00;99.90
8180;DHT22;4131;48.810;11.892;2023-04-16T14:51:24;12.10;99.90
8180;DHT22;4131;48.810;11.892;2023-04-16T14:53:53;12.20;99.90
8180;DHT22;4131;48.810;11.892;2023-04-16T14:56:21;12.30;99.90
8180;DHT22;4131;48.810;11.892;2023-04-16T14:58:50;12.20;99.90
8180;DHT22;4131;48.810;11.892;2023-04-16T15:01:18;12.30;99.90
8180;DHT22;4131;48.810;11.892;2023-04-16T15:03:47;12.30;99.90
8180;DHT22;4131;48.810;11.892;2023-04-16T15:06:15;12.20;99.90
8180;DHT22;4131;48.810;11.892;2023-04-16T15:08:44;12.30;99.90
8180;DHT22;4131;48.810;11.892;2023-04-16T15:11:12;12.30;99.90
8180;DHT22;4131;48.810;11.892;2023-04-16T15:13:41;12.40;99.90
8180;DHT22;4131;48.810;11.892;2023-04-16T15:16:10;12.40;99.90
8180;DHT22;4131;48.810;11.892;2023-04-16T15:18:39;12.40;99.90
8180;DHT22;4131;48.810;11.892;2023-04-16T15:21:07;12.40;99.90
8180;DHT22;4131;48.810;11.892;2023-04-16T15:23:38;12.40;99.90
8180;DHT22;4131;48.810;11.892;2023-04-16T15:26:06;12.60;99.90
8180;DHT22;4131;48.810;11.892;2023-04-16T15:28:34;12.80;99.90
8180;DHT22;4131;48.810;11.892;2023-04-16T15:31:02;12.80;99.90
8180;DHT22;4131;48.810;11.892;2023-04-16T15:33:32;12.80;99.90
8180;DHT22;4131;48.810;11.892;2023-04-16T15:36:00;13.00;99.90
8180;DHT22;4131;48.810;11.892;2023-04-16T15:38:28;12.90;99.90
8180;DHT22;4131;48.810;11.892;2023-04-16T15:40:57;12.90;99.90
8180;DHT22;4131;48.810;11.892;2023-04-16T15:43:26;12.90;99.90
8180;DHT22;4131;48.810;11.892;2023-04-16T15:45:55;12.90;99.90
8180;DHT22;4131;48.810;11.892;2023-04-16T15:48:23;12.80;99.90
8180;DHT22;4131;48.810;11.892;2023-04-16T15:50:54;12.60;99.90
8180;DHT22;4131;48.810;11.892;2023-04-16T15:53:22;12.60;99.90
8180;DHT22;4131;48.810;11.892;2023-04-16T15:55:51;12.40;99.90
8180;DHT22;4131;48.810;11.892;2023-04-16T15:58:19;12.50;99.90
8180;DHT22;4131;48.810;11.892;2023-04-16T16:00:48;12.40;99.90
8180;DHT22;4131;48.810;11.892;2023-04-16T16:03:17;12.30;99.90
8180;DHT22;4131;48.810;11.892;2023-04-16T16:05:46;12.20;99.90
8180;DHT22;4131;48.810;11.892;2023-04-16T16:08:15;12.30;99.90
8180;DHT22;4131;48.810;11.892;2023-04-16T16:10:44;12.30;99.90
8180;DHT22;4131;48.810;11.892;2023-04-16T16:13:12;12.30;99.90
8180;DHT22;4131;48.810;11.892;2023-04-16T16:15:43;12.20;99.90